Time;durP1;ratioP1;P1;durP2;ratioP2;P2;SDS_P1;SDS_P2;PMS_P1;PMS_P2;Temp;Humidity;BMP_temperature;BMP_pressure;BME280_temperature;BME280_humidity;BME280_pressure;Samples;Min_cycle;Max_cycle;Signal;HPM_P1;HPM_P2
2022/10/24 00:09:22;;;;;;;6.23;1.90;;;15.10;99.90;;;;;;21078600;28;20028;-76
2022/10/24 00:19:23;;;;;;;7.40;2.03;;;15.10;99.90;;;;;;21076684;28;20028;-76
2022/10/24 00:29:24;;;;;;;11.30;2.13;;;15.20;99.90;;;;;;21077047;28;20457;-76
2022/10/24 00:39:25;;;;;;;12.90;2.40;;;15.40;99.90;;;;;;21076433;28;20036;-76
2022/10/24 00:49:52;;;;;;;13.40;2.07;;;16.00;99.90;;;;;;21075504;28;20047;-76
2022/10/24 00:59:58;;;;;;;9.32;1.67;;;15.90;99.90;;;;;;21048436;28;20044;-77
2022/10/24 01:10:17;;;;;;;13.55;2.10;;;15.60;99.90;;;;;;21074050;28;20024;-76
2022/10/24 01:20:51;;;;;;;10.85;2.38;;;15.10;99.90;;;;;;21073689;28;20031;-76
2022/10/24 01:30:59;;;;;;;9.65;2.28;;;15.10;99.90;;;;;;21072618;28;20024;-76
2022/10/24 01:41:06;;;;;;;14.63;2.03;;;15.40;99.90;;;;;;21055121;28;20555;-76
2022/10/24 01:51:10;;;;;;;4.22;1.65;;;15.70;99.90;;;;;;21072801;28;20032;-77
2022/10/24 02:01:15;;;;;;;11.13;1.63;;;16.50;99.90;;;;;;21088075;28;20028;-77
2022/10/24 02:11:16;;;;;;;5.38;1.30;;;17.00;99.90;;;;;;21071891;28;20035;-77
2022/10/24 02:21:22;;;;;;;3.77;1.07;;;16.90;99.90;;;;;;21070025;28;20028;-77
2022/10/24 02:31:26;;;;;;;5.75;0.93;;;16.90;99.90;;;;;;21071060;28;20024;-77
2022/10/24 02:41:34;;;;;;;6.57;1.40;;;16.80;99.90;;;;;;21073674;28;20036;-77
2022/10/24 02:51:38;;;;;;;9.18;1.02;;;16.90;99.90;;;;;;21085467;28;20114;-77
2022/10/24 03:01:39;;;;;;;3.50;0.73;;;17.00;99.90;;;;;;21084857;28;20036;-77
2022/10/24 03:11:40;;;;;;;10.27;1.20;;;17.00;99.90;;;;;;21065963;28;20039;-77
2022/10/24 03:21:41;;;;;;;4.20;0.87;;;16.80;99.90;;;;;;21082918;28;20456;-75
2022/10/24 03:31:42;;;;;;;1.47;0.83;;;16.30;99.90;;;;;;21082380;28;20518;-75
2022/10/24 03:41:42;;;;;;;5.67;1.10;;;15.60;99.90;;;;;;21081606;28;20040;-76
2022/10/24 03:51:43;;;;;;;7.30;1.20;;;15.90;99.90;;;;;;21080339;28;20115;-76
2022/10/24 04:01:44;;;;;;;7.87;1.10;;;15.10;99.90;;;;;;21079603;28;20394;-77
2022/10/24 04:11:45;;;;;;;8.37;1.30;;;15.20;99.90;;;;;;21078501;28;20077;-77
2022/10/24 04:21:46;;;;;;;9.20;1.80;;;14.80;99.90;;;;;;21078154;28;20028;-76
2022/10/24 04:31:47;;;;;;;8.02;1.65;;;14.40;99.90;;;;;;21077349;28;20043;-76
2022/10/24 04:41:48;;;;;;;13.30;2.07;;;14.10;99.90;;;;;;21076793;28;20634;-75
2022/10/24 04:51:49;;;;;;;8.63;1.83;;;14.10;99.90;;;;;;21052387;28;20398;-75
2022/10/24 05:01:49;;;;;;;11.60;2.67;;;14.10;99.90;;;;;;21047160;28;20036;-76
2022/10/24 05:11:52;;;;;;;10.07;2.87;;;14.00;99.90;;;;;;21081894;28;20111;-77
2022/10/24 05:21:53;;;;;;;10.07;3.25;;;14.00;99.90;;;;;;21081462;28;20042;-77
2022/10/24 05:31:54;;;;;;;13.13;3.83;;;13.90;99.90;;;;;;21091442;28;20032;-78
2022/10/24 05:41:54;;;;;;;8.13;2.70;;;13.80;99.90;;;;;;21095907;28;20027;-78
2022/10/24 05:51:55;;;;;;;10.97;2.70;;;13.90;99.90;;;;;;21092683;28;20088;-79
2022/10/24 06:01:57;;;;;;;18.57;3.10;;;13.80;99.90;;;;;;21094876;28;20028;-79
2022/10/24 06:11:57;;;;;;;8.68;2.65;;;13.80;99.90;;;;;;21093230;28;20044;-78
2022/10/24 06:21:58;;;;;;;12.63;2.73;;;13.70;99.90;;;;;;21103669;28;20032;-78
2022/10/24 06:31:59;;;;;;;6.53;2.60;;;13.80;99.90;;;;;;21101748;28;20409;-78
2022/10/24 06:42:00;;;;;;;8.93;3.30;;;13.80;99.90;;;;;;21076111;28;20028;-78
2022/10/24 06:52:01;;;;;;;;;;;13.70;99.90;;;;;;21076660;28;20032;-77
2022/10/24 07:02:02;;;;;;;13.90;3.27;;;13.70;99.90;;;;;;21095165;28;19916;-77
2022/10/24 07:12:03;;;;;;;20.00;3.60;;;13.70;99.90;;;;;;21075981;28;20042;-77
2022/10/24 07:22:04;;;;;;;18.30;3.33;;;13.70;99.90;;;;;;21089921;28;20100;-78
2022/10/24 07:32:05;;;;;;;12.70;2.57;;;13.80;99.90;;;;;;21097533;28;20028;-78
2022/10/24 07:42:06;;;;;;;7.60;2.10;;;13.80;99.90;;;;;;21094922;28;20032;-77
2022/10/24 07:52:06;;;;;;;13.20;3.33;;;13.80;99.90;;;;;;21088314;28;20039;-76
2022/10/24 08:02:12;;;;;;;11.07;3.37;;;13.80;99.90;;;;;;21084192;28;20032;-77
2022/10/24 08:12:13;;;;;;;9.98;3.72;;;13.90;99.90;;;;;;21069194;28;20036;-77
2022/10/24 08:22:15;;;;;;;6.37;3.20;;;13.80;99.90;;;;;;21082092;28;20028;-76
2022/10/24 08:32:16;;;;;;;6.45;2.60;;;13.90;99.90;;;;;;21081115;28;20035;-77
2022/10/24 08:42:17;;;;;;;8.10;3.33;;;13.90;99.90;;;;;;21059359;28;20398;-77
2022/10/24 08:52:39;;;;;;;;;;;13.80;99.90;;;;;;21081105;28;20036;-77
2022/10/24 09:02:42;;;;;;;9.25;2.40;;;13.80;99.90;;;;;;21083379;28;19914;-77
2022/10/24 09:12:43;;;;;;;8.52;1.50;;;13.80;99.90;;;;;;21059195;28;20039;-77
2022/10/24 09:22:45;;;;;;;6.20;1.33;;;13.80;99.90;;;;;;21081092;28;20450;-77
2022/10/24 09:32:46;;;;;;;14.85;5.15;;;13.70;99.90;;;;;;21079456;28;20398;-77
2022/10/24 09:42:53;;;;;;;8.00;1.80;;;13.60;99.90;;;;;;21055933;28;20028;-76
2022/10/24 09:52:57;;;;;;;5.93;1.42;;;13.60;99.90;;;;;;21062996;28;20039;-77
2022/10/24 10:03:03;;;;;;;6.20;0.98;;;13.60;99.90;;;;;;21089870;28;20032;-76
2022/10/24 10:13:25;;;;;;;6.57;0.80;;;13.50;99.90;;;;;;21088969;28;20081;-75
2022/10/24 10:23:30;;;;;;;;;;;13.50;99.90;;;;;;21089625;28;20056;-76
2022/10/24 10:33:52;;;;;;;4.07;1.10;;;13.50;99.90;;;;;;21069235;28;20403;-77
2022/10/24 10:44:31;;;;;;;3.47;0.80;;;13.40;99.90;;;;;;21069041;28;20043;-76
2022/10/24 10:54:58;;;;;;;3.42;0.90;;;13.50;99.90;;;;;;21086582;28;20032;-76
2022/10/24 11:05:23;;;;;;;3.00;1.00;;;13.40;99.90;;;;;;21085827;28;20036;-77
2022/10/24 11:15:32;;;;;;;5.72;2.55;;;13.20;99.90;;;;;;21068196;28;20039;-77
2022/10/24 11:25:47;;;;;;;4.15;1.30;;;13.40;99.90;;;;;;21083407;28;20096;-76
2022/10/24 11:36:20;;;;;;;8.52;2.60;;;13.60;99.90;;;;;;21064241;28;20529;-77
2022/10/24 11:46:31;;;;;;;12.40;1.33;;;13.50;99.90;;;;;;21077891;28;20039;-78
2022/10/24 11:56:43;;;;;;;4.20;1.70;;;13.70;99.90;;;;;;21085972;28;20035;-77
2022/10/24 12:07:03;;;;;;;6.28;1.95;;;13.90;99.90;;;;;;21087433;28;20032;-77
2022/10/24 12:17:23;;;;;;;2.83;1.63;;;14.30;99.90;;;;;;21080281;28;20085;-77
2022/10/24 12:27:35;;;;;;;3.95;1.70;;;14.20;99.90;;;;;;21069176;28;20394;-77
2022/10/24 12:37:37;;;;;;;4.07;1.30;;;13.90;99.90;;;;;;20994125;28;20052;-77
2022/10/24 12:47:39;;;;;;;4.50;1.33;;;13.80;99.90;;;;;;20992839;28;20040;-76
2022/10/24 12:57:44;;;;;;;6.75;1.00;;;13.90;99.90;;;;;;20992403;28;20483;-77
2022/10/24 13:08:04;;;;;;;6.40;1.42;;;14.00;99.90;;;;;;20992020;28;20620;-77
2022/10/24 13:18:34;;;;;;;3.70;1.40;;;14.00;99.90;;;;;;20991030;28;20108;-77
2022/10/24 13:28:38;;;;;;;7.45;2.10;;;14.10;99.90;;;;;;20991106;28;20032;-77
2022/10/24 13:38:45;;;;;;;5.43;1.58;;;14.00;99.90;;;;;;20990551;28;20399;-77
2022/10/24 13:48:47;;;;;;;1.58;1.15;;;14.00;99.90;;;;;;20990740;28;20086;-77
2022/10/24 13:58:48;;;;;;;7.68;1.35;;;14.00;99.90;;;;;;20989728;28;20518;-77
2022/10/24 14:08:51;;;;;;;3.97;1.20;;;14.10;99.90;;;;;;20971384;28;20032;-77
2022/10/24 14:19:22;;;;;;;7.53;2.80;;;14.30;99.90;;;;;;20976906;28;20515;-76
2022/10/24 14:29:32;;;;;;;1.92;1.10;;;14.30;99.90;;;;;;21015036;28;20037;-75
2022/10/24 14:39:34;;;;;;;6.78;1.50;;;14.60;99.90;;;;;;20969192;28;20033;-76
2022/10/24 14:49:36;;;;;;;7.43;1.83;;;14.80;99.90;;;;;;21002370;28;20471;-76
2022/10/24 14:59:38;;;;;;;2.22;1.13;;;14.80;99.90;;;;;;20988211;28;20058;-77
2022/10/24 15:09:54;;;;;;;2.78;2.15;;;14.80;99.90;;;;;;20920631;28;20033;-76
2022/10/24 15:20:01;;;;;;;8.50;1.70;;;15.10;99.90;;;;;;20980181;28;20036;-77
2022/10/24 15:30:02;;;;;;;9.20;1.80;;;16.00;99.90;;;;;;21003645;28;20474;-77
2022/10/24 15:40:11;;;;;;;9.02;1.70;;;15.60;99.90;;;;;;20950432;28;20032;-77
2022/10/24 15:50:17;;;;;;;8.63;3.08;;;14.90;99.90;;;;;;20983031;28;20055;-77
2022/10/24 16:00:21;;;;;;;7.55;1.83;;;14.30;99.90;;;;;;21003107;28;20042;-78
2022/10/24 16:10:22;;;;;;;3.83;1.42;;;14.10;99.90;;;;;;21012049;28;20029;-78
2022/10/24 16:20:23;;;;;;;7.63;1.57;;;14.20;99.90;;;;;;21006780;28;20114;-76
2022/10/24 16:30:27;;;;;;;10.03;1.70;;;14.00;99.90;;;;;;20994503;28;20532;-77
2022/10/24 16:40:29;;;;;;;5.38;1.83;;;13.70;99.90;;;;;;20951947;28;20111;-77
2022/10/24 16:50:31;;;;;;;3.30;1.50;;;13.00;99.90;;;;;;20940693;28;20449;-77
2022/10/24 17:00:31;;;;;;;4.88;2.17;;;13.10;99.90;;;;;;20996384;28;20037;-77
2022/10/24 17:10:33;;;;;;;5.03;1.60;;;12.60;99.90;;;;;;21002515;28;20039;-78
2022/10/24 17:20:34;;;;;;;7.87;1.60;;;12.80;99.90;;;;;;20963672;28;20017;-76
2022/10/24 17:30:35;;;;;;;2.20;1.13;;;12.40;99.90;;;;;;20977233;28;20033;-78
2022/10/24 17:40:41;;;;;;;10.25;1.60;;;12.20;99.90;;;;;;20963598;28;20032;-78
2022/10/24 17:50:42;;;;;;;2.72;1.40;;;12.00;99.90;;;;;;21001044;28;20048;-77
2022/10/24 18:00:43;;;;;;;4.60;1.63;;;11.80;99.90;;;;;;20980173;28;20072;-77
2022/10/24 18:10:44;;;;;;;10.05;1.63;;;11.70;99.90;;;;;;21009230;28;20157;-78
2022/10/24 18:20:45;;;;;;;3.67;1.73;;;12.00;99.90;;;;;;20963481;28;20280;-77
2022/10/24 18:30:46;;;;;;;8.43;1.40;;;11.80;99.90;;;;;;20977878;28;20048;-76
2022/10/24 18:40:47;;;;;;;8.67;2.27;;;11.50;99.90;;;;;;20961453;28;20025;-77
2022/10/24 18:50:49;;;;;;;4.80;2.00;;;11.40;99.90;;;;;;20991924;28;20024;-78
2022/10/24 19:00:52;;;;;;;5.07;2.30;;;11.40;99.90;;;;;;20977494;28;20056;-77
2022/10/24 19:10:54;;;;;;;7.70;2.42;;;11.30;99.90;;;;;;20985524;28;20071;-78
2022/10/24 19:20:55;;;;;;;4.45;1.83;;;11.10;99.90;;;;;;20986000;28;20467;-78
2022/10/24 19:30:57;;;;;;;4.23;1.60;;;10.90;99.90;;;;;;20963358;28;20031;-77
2022/10/24 19:40:59;;;;;;;4.57;1.60;;;10.60;99.90;;;;;;20962297;28;20518;-77
2022/10/24 19:51:11;;;;;;;3.83;1.42;;;10.60;99.90;;;;;;20974219;28;20452;-77
2022/10/24 20:01:18;;;;;;;2.60;1.38;;;10.40;99.90;;;;;;20969325;28;20020;-76
2022/10/24 20:11:22;;;;;;;3.25;1.25;;;10.20;99.90;;;;;;20961104;28;20149;-75
2022/10/24 20:21:22;;;;;;;11.15;1.65;;;10.30;99.90;;;;;;20954862;28;20427;-76
2022/10/24 20:31:30;;;;;;;4.03;1.60;;;10.10;99.90;;;;;;20930862;28;20082;-75
2022/10/24 20:41:31;;;;;;;9.32;1.80;;;10.30;99.90;;;;;;20952303;28;20078;-76
2022/10/24 20:51:32;;;;;;;8.00;1.40;;;10.40;99.90;;;;;;20950867;28;20431;-76
2022/10/24 21:01:32;;;;;;;3.53;1.57;;;10.30;99.90;;;;;;20950404;28;20462;-76
2022/10/24 21:11:34;;;;;;;3.13;1.20;;;10.20;99.90;;;;;;20956826;28;20028;-76
2022/10/24 21:21:35;;;;;;;7.13;2.65;;;10.30;99.90;;;;;;20991990;28;20033;-76
2022/10/24 21:31:35;;;;;;;8.83;2.77;;;10.40;99.90;;;;;;20993372;28;20033;-76
2022/10/24 21:41:36;;;;;;;9.27;2.03;;;10.40;99.90;;;;;;21016198;28;20028;-76
2022/10/24 21:51:38;;;;;;;13.67;6.13;;;10.40;99.90;;;;;;21088734;28;20032;-77
2022/10/24 22:01:40;;;;;;;15.45;7.82;;;10.60;99.90;;;;;;21113658;28;20044;-77
2022/10/24 22:11:41;;;;;;;10.70;5.80;;;11.00;99.90;;;;;;21081517;28;20028;-77
2022/10/24 22:21:47;;;;;;;288.43;17.77;;;10.90;99.90;;;;;;21094039;28;20024;-76
2022/10/24 22:31:50;;;;;;;22.40;10.55;;;10.90;99.90;;;;;;21096377;28;20334;-77
2022/10/24 22:41:51;;;;;;;21.80;8.00;;;10.80;99.90;;;;;;21097917;28;20028;-76
2022/10/24 22:51:52;;;;;;;;;;;10.90;99.90;;;;;;21102542;28;20028;-77
2022/10/24 23:02:06;;;;;;;13.00;6.55;;;10.90;99.90;;;;;;21099228;28;19911;-76
2022/10/24 23:12:14;;;;;;;17.52;7.03;;;10.90;99.90;;;;;;21088257;28;20036;-76
2022/10/24 23:22:21;;;;;;;13.68;6.57;;;10.90;99.90;;;;;;21084372;28;20028;-76
2022/10/24 23:32:26;;;;;;;48.67;8.35;;;11.00;99.90;;;;;;21064519;28;20490;-76
2022/10/24 23:42:27;;;;;;;18.40;8.65;;;11.00;99.90;;;;;;21082194;28;20035;-76
2022/10/24 23:52:36;;;;;;;97.82;13.43;;;10.70;99.90;;;;;;21081255;28;20495;-76
